WEATHER DATA

TODAY
Time Temp. Dewp. Hum. Bar.
00:05 5.6 2.8 82 1011.5
00:25 5.5 2.7 82 1011.6
00:35 5.5 2.7 82 1011.5
00:45 5.5 2.8 83 1011.3
00:55 5.4 2.7 83 1011.2
01:05 5.4 2.7 83 1011.1
01:15 5.3 2.7 83 1010.9
01:25 5.3 2.7 83 1010.9
01:35 5.3 2.7 83 1010.7
01:45 5.3 2.7 83 1010.6
01:55 5.3 2.7 83 1010.5
02:06 5.3 2.8 84 1010.5
02:15 5.3 2.8 84 1010.4
02:25 5.3 2.8 84 1010.4
02:36 5.3 2.8 84 1010.7
02:46 5.3 2.8 84 1010.7
02:55 5.3 2.8 84 1010.6
03:05 5.3 2.8 84 1010.4
03:16 5.4 2.9 84 1010.2
03:26 5.4 2.9 84 1010.2
03:35 5.5 3.2 85 1010.1
03:46 5.6 3.3 85 1010
03:56 5.7 3.4 85 1009.8
04:15 5.8 3.5 85 1009.4
04:26 5.9 3.6 85 1009.3
04:36 5.9 3.6 85 1009.3
04:46 5.9 3.6 85 1009.1
04:56 6 3.7 85 1009
05:06 6 3.7 85 1009
05:16 6.1 3.8 85 1008.8
05:26 6.2 3.9 85 1008.6
05:36 6.2 4 86 1008.4
05:46 6.3 4.1 86 1008.3
06:02 6.5 4.3 86 1008.1
06:11 6.6 4.4 86 1008.1
06:21 6.7 4.5 86 1008.1
06:31 6.8 4.6 86 1008
06:42 6.8 4.6 86 1007.9
06:51 6.9 4.7 86 1007.8
07:01 6.9 4.7 86 1007.8
07:12 6.9 4.7 86 1007.7
07:22 7 4.8 86 1007.6
07:31 7 4.8 86 1007.5
07:41 7 4.8 86 1007.5
07:52 7 4.8 86 1007.4
08:02 7.1 4.9 86 1007.4
08:11 7.1 4.9 86 1007.4
08:21 7.1 4.9 86 1007.4
08:32 7.2 5 86 1007.4
08:42 7.2 5 86 1007.4
08:52 7.2 5 86 1007.2
09:02 7.3 5.1 86 1007.1
09:12 7.3 5.1 86 1007.1
09:22 7.4 5.2 86 1006.9
09:32 7.4 5.4 87 1006.9
09:42 7.5 5.5 87 1006.8
09:52 7.6 5.6 87 1006.8
10:02 7.7 5.7 87 1006.7
10:12 7.8 5.8 87 1006.7
10:22 7.9 5.9 87 1006.6
10:32 7.9 5.9 87 1006.5
10:42 8 6 87 1006.3
10:52 8 6 87 1006.2
11:02 8.1 5.9 86 1006
11:12 8.3 6.1 86 1006
11:22 8.4 6.2 86 1006
11:32 8.5 6.3 86 1005.9
11:42 8.6 6.4 86 1005.7
11:53 8.6 6.4 86 1005.6
12:02 8.6 6.4 86 1005.3
12:12 8.7 6.5 86 1005.2
12:23 8.8 6.6 86 1005
12:33 8.9 6.7 86 1004.8
12:42 8.9 6.7 86 1004.7
12:52 9 6.8 86 1004.5
13:03 9 6.6 85 1004.4
13:13 9.1 6.7 85 1004.3
13:22 9.1 6.7 85 1004.2
13:33 9.1 6.7 85 1004
13:43 9.2 6.8 85 1003.9
13:53 9.2 6.8 85 1003.9
14:03 9.2 6.6 84 1003.8
14:13 9.2 6.6 84 1003.8
14:23 9.2 6.6 84 1003.8
14:33 9 6.4 84 1003.8
14:43 8.8 6.2 84 1003.6
14:53 8.6 6.1 84 1003.4
15:03 8.5 6 84 1003.4
15:14 8.5 6 84 1003.3
15:23 8.4 5.9 84 1003.2
15:33 8.4 5.9 84 1003.1
15:43 8.3 5.8 84 1003.1
15:53 8.3 5.8 84 1002.9
16:03 8.3 5.8 84 1002.7
16:13 8.3 5.8 84 1002.7
16:24 8.3 5.8 84 1002.6
16:34 8.2 5.7 84 1002.3

DAY STATISTIC

2020-01-27
TEMPERATURE
AVERAGE
7.2
HIGH
9.2
13:43
LOW
5.3
01:15
PRESSURE
AVERAGE
1007.2
HIGH
1011.6
00:25
LOW
1002.3
16:34
DEWPOINT
AVERAGE
4.8
HIGH
6.8
12:52
LOW
2.7
00:25
HUMIDITY
AVERAGE
85
HIGH
87
09:32
LOW
82
00:05
TEMPERATURE (°C)
LOW
5.3
HIGH
9.2
AVERAGE
7.2
PRESSURE (hpa)
LOW
1002.3
HIGH
1011.6
AVERAGE
1007.2
DEVICE